CP2083 SLCP-SLET
Flight info
| Callsign | CP2083 |
|---|---|
| Flight time | 0h 45m |
| Altitude | 4000 |
| Route | SLCP SLET |
| Aircraft | C206/L-V/N |
Departure
| Time | 2026-05-07 20:00 |
|---|---|
| Airport | Concepción Airport (SLCP) |
Arrival
| Time | 2026-05-07 20:45 |
|---|---|
| Airport | El Trompillo Airport (SLET) |
| Time | Latitude | Longitude | Altitude | Speed | Heading |
|---|---|---|---|---|---|
| 2026-05-07 19:54 | -16.14504 | -62.02076 | 1625 ft | 0 kts | 315° |
| 2026-05-07 19:57 | -16.14466 | -62.02116 | 1625 ft | 1 kts | 312° |
| 2026-05-07 19:57 | -16.14381 | -62.02182 | 1625 ft | 63 kts | 320° |
| 2026-05-07 19:57 | -16.14129 | -62.02447 | 1625 ft | 32 kts | 311° |
| 2026-05-07 19:57 | -16.13927 | -62.02694 | 1625 ft | 88 kts | 309° |
| 2026-05-07 19:58 | -16.13856 | -62.02782 | 1622 ft | 104 kts | 309° |
| 2026-05-07 19:58 | -16.13378 | -62.02916 | 1614 ft | 47 kts | 24° |
| 2026-05-07 19:58 | -16.12980 | -62.02799 | 1455 ft | 92 kts | 16° |
| 2026-05-07 19:58 | -16.12552 | -62.02288 | 1918 ft | 113 kts | 84° |
| 2026-05-07 19:59 | -16.12854 | -62.01847 | 2038 ft | 130 kts | 157° |
| 2026-05-07 19:59 | -16.13701 | -62.02103 | 2216 ft | 137 kts | 216° |
| 2026-05-07 19:59 | -16.14632 | -62.02331 | 1908 ft | 123 kts | 202° |
| 2026-05-07 20:00 | -16.15259 | -62.02389 | 1932 ft | 154 kts | 77° |
| 2026-05-07 20:00 | -16.15322 | -62.01404 | 2326 ft | 123 kts | 70° |
| 2026-05-07 20:00 | -16.14600 | -62.01743 | 2123 ft | 156 kts | 310° |
| 2026-05-07 20:00 | -16.13965 | -62.02687 | 2340 ft | 134 kts | 319° |
| 2026-05-07 20:01 | -16.13181 | -62.02819 | 2709 ft | 139 kts | 34° |
| 2026-05-07 20:01 | -16.12286 | -62.02263 | 2753 ft | 164 kts | 28° |
| 2026-05-07 20:01 | -16.11163 | -62.01854 | 2725 ft | 167 kts | 2° |
| 2026-05-07 20:01 | -16.10297 | -62.02488 | 3010 ft | 162 kts | 299° |
| 2026-05-07 20:02 | -16.10308 | -62.03697 | 2749 ft | 179 kts | 243° |
| 2026-05-07 20:02 | -16.11414 | -62.04178 | 2156 ft | 195 kts | 162° |
| 2026-05-07 20:02 | -16.12601 | -62.03547 | 1998 ft | 183 kts | 150° |
| 2026-05-07 20:02 | -16.13156 | -62.02459 | 1836 ft | 182 kts | 106° |
| 2026-05-07 20:03 | -16.13835 | -62.01424 | 2043 ft | 166 kts | 136° |
| 2026-05-07 20:03 | -16.14768 | -62.00761 | 2242 ft | 160 kts | 162° |
| 2026-05-07 20:03 | -16.15891 | -62.00718 | 2417 ft | 162 kts | 184° |
| 2026-05-07 20:03 | -16.16957 | -62.01072 | 2663 ft | 160 kts | 207° |
| 2026-05-07 20:04 | -16.17806 | -62.01822 | 2924 ft | 159 kts | 227° |
| 2026-05-07 20:04 | -16.18509 | -62.02701 | 3177 ft | 159 kts | 231° |
| 2026-05-07 20:04 | -16.19257 | -62.03570 | 3430 ft | 160 kts | 226° |
| 2026-05-07 20:04 | -16.20070 | -62.04349 | 3679 ft | 160 kts | 220° |
| 2026-05-07 20:05 | -16.20645 | -62.04831 | 3819 ft | 162 kts | 218° |
| 2026-05-07 20:05 | -16.21567 | -62.05528 | 3949 ft | 166 kts | 215° |
| 2026-05-07 20:05 | -16.22556 | -62.06217 | 3994 ft | 172 kts | 213° |
| 2026-05-07 20:05 | -16.23570 | -62.06888 | 4001 ft | 175 kts | 212° |
| 2026-05-07 20:06 | -16.24607 | -62.07557 | 4001 ft | 177 kts | 211° |
| 2026-05-07 20:06 | -16.25664 | -62.08228 | 4000 ft | 177 kts | 211° |
| 2026-05-07 20:06 | -16.26719 | -62.08890 | 4000 ft | 177 kts | 211° |
| 2026-05-07 20:06 | -16.27785 | -62.09555 | 4000 ft | 177 kts | 211° |
| 2026-05-07 20:07 | -16.28840 | -62.10212 | 4000 ft | 177 kts | 211° |
| 2026-05-07 20:07 | -16.29910 | -62.10876 | 4000 ft | 177 kts | 211° |
| 2026-05-07 20:07 | -16.30958 | -62.11526 | 4000 ft | 177 kts | 211° |
| 2026-05-07 20:07 | -16.32030 | -62.12190 | 4000 ft | 177 kts | 211° |
| 2026-05-07 20:08 | -16.33094 | -62.12850 | 4000 ft | 177 kts | 211° |
| 2026-05-07 20:08 | -16.34147 | -62.13502 | 4000 ft | 177 kts | 211° |
| 2026-05-07 20:08 | -16.35211 | -62.14160 | 4000 ft | 177 kts | 211° |
| 2026-05-07 20:08 | -16.36283 | -62.14824 | 4000 ft | 177 kts | 211° |
| 2026-05-07 20:09 | -16.37339 | -62.15478 | 4000 ft | 177 kts | 211° |
| 2026-05-07 20:09 | -16.38396 | -62.16133 | 4000 ft | 177 kts | 211° |
| 2026-05-07 20:09 | -16.39471 | -62.16798 | 4000 ft | 177 kts | 211° |
| 2026-05-07 20:10 | -16.41585 | -62.18108 | 4000 ft | 177 kts | 211° |
| 2026-05-07 20:10 | -16.42645 | -62.18765 | 4000 ft | 177 kts | 211° |
| 2026-05-07 20:10 | -16.43714 | -62.19427 | 4000 ft | 177 kts | 211° |
| 2026-05-07 20:10 | -16.44774 | -62.20084 | 4000 ft | 177 kts | 211° |
| 2026-05-07 20:11 | -16.45834 | -62.20742 | 4000 ft | 177 kts | 211° |
| 2026-05-07 20:11 | -16.46895 | -62.21399 | 4000 ft | 178 kts | 211° |
| 2026-05-07 20:11 | -16.47961 | -62.22060 | 4000 ft | 178 kts | 211° |
| 2026-05-07 20:11 | -16.49032 | -62.22724 | 4000 ft | 178 kts | 211° |
| 2026-05-07 20:12 | -16.50084 | -62.23377 | 4000 ft | 178 kts | 211° |
| 2026-05-07 20:12 | -16.51142 | -62.24033 | 4000 ft | 178 kts | 211° |
| 2026-05-07 20:12 | -16.52211 | -62.24696 | 4000 ft | 178 kts | 211° |
| 2026-05-07 20:12 | -16.53267 | -62.25351 | 4000 ft | 178 kts | 211° |
| 2026-05-07 20:13 | -16.54336 | -62.26015 | 4000 ft | 178 kts | 211° |
| 2026-05-07 20:13 | -16.55394 | -62.26671 | 4000 ft | 178 kts | 211° |
| 2026-05-07 20:13 | -16.56453 | -62.27328 | 4000 ft | 178 kts | 211° |
| 2026-05-07 20:13 | -16.57527 | -62.27995 | 4000 ft | 178 kts | 211° |
| 2026-05-07 20:14 | -16.58587 | -62.28653 | 4000 ft | 178 kts | 211° |
| 2026-05-07 20:14 | -16.59649 | -62.29312 | 4000 ft | 178 kts | 211° |
| 2026-05-07 20:14 | -16.60705 | -62.29968 | 4000 ft | 178 kts | 211° |
| 2026-05-07 20:14 | -16.61774 | -62.30632 | 4000 ft | 178 kts | 211° |
| 2026-05-07 20:15 | -16.62832 | -62.31289 | 4000 ft | 178 kts | 211° |
| 2026-05-07 20:15 | -16.63890 | -62.31947 | 4000 ft | 178 kts | 211° |
| 2026-05-07 20:15 | -16.64955 | -62.32608 | 4000 ft | 178 kts | 211° |
| 2026-05-07 20:15 | -16.66014 | -62.33266 | 4000 ft | 178 kts | 211° |
| 2026-05-07 20:16 | -16.67077 | -62.33927 | 4000 ft | 178 kts | 211° |
| 2026-05-07 20:16 | -16.68149 | -62.34593 | 4000 ft | 178 kts | 211° |
| 2026-05-07 20:16 | -16.69204 | -62.35249 | 4000 ft | 178 kts | 211° |
| 2026-05-07 20:16 | -16.70264 | -62.35908 | 4000 ft | 178 kts | 211° |
| 2026-05-07 20:17 | -16.71337 | -62.36575 | 4000 ft | 178 kts | 211° |
| 2026-05-07 20:17 | -16.72394 | -62.37233 | 4000 ft | 178 kts | 211° |
| 2026-05-07 20:17 | -16.73451 | -62.37890 | 4000 ft | 178 kts | 211° |
| 2026-05-07 20:17 | -16.74525 | -62.38558 | 4000 ft | 178 kts | 211° |
| 2026-05-07 20:18 | -16.75579 | -62.39214 | 4000 ft | 178 kts | 211° |
| 2026-05-07 20:18 | -16.76637 | -62.39872 | 4000 ft | 178 kts | 211° |
| 2026-05-07 20:18 | -16.77705 | -62.40536 | 4000 ft | 178 kts | 211° |
| 2026-05-07 20:18 | -16.78763 | -62.41195 | 4000 ft | 178 kts | 211° |
| 2026-05-07 20:19 | -16.79827 | -62.41857 | 4000 ft | 178 kts | 211° |
| 2026-05-07 20:19 | -16.80885 | -62.42516 | 4000 ft | 178 kts | 211° |
| 2026-05-07 20:19 | -16.81946 | -62.43176 | 4000 ft | 178 kts | 211° |
| 2026-05-07 20:19 | -16.83016 | -62.43843 | 4000 ft | 178 kts | 211° |
| 2026-05-07 20:20 | -16.84071 | -62.44499 | 4000 ft | 178 kts | 211° |
| 2026-05-07 20:20 | -16.85141 | -62.45166 | 4000 ft | 178 kts | 211° |
| 2026-05-07 20:20 | -16.86200 | -62.45826 | 4000 ft | 178 kts | 211° |
| 2026-05-07 20:20 | -16.87264 | -62.46489 | 4000 ft | 178 kts | 211° |
| 2026-05-07 20:21 | -16.88319 | -62.47146 | 4000 ft | 178 kts | 211° |
| 2026-05-07 20:21 | -16.89378 | -62.47806 | 4000 ft | 178 kts | 211° |
| 2026-05-07 20:21 | -16.90445 | -62.48471 | 4000 ft | 178 kts | 211° |
| 2026-05-07 20:21 | -16.91502 | -62.49130 | 4000 ft | 178 kts | 211° |
| 2026-05-07 20:22 | -16.92567 | -62.49794 | 4000 ft | 178 kts | 211° |
| 2026-05-07 20:22 | -16.93630 | -62.50457 | 4000 ft | 178 kts | 211° |
| 2026-05-07 20:22 | -16.94683 | -62.51113 | 4000 ft | 178 kts | 211° |
| 2026-05-07 20:22 | -16.95748 | -62.51778 | 4000 ft | 178 kts | 211° |
| 2026-05-07 20:23 | -16.96821 | -62.52447 | 4000 ft | 178 kts | 211° |
| 2026-05-07 20:23 | -16.97879 | -62.53107 | 4000 ft | 178 kts | 211° |
| 2026-05-07 20:23 | -16.98929 | -62.53762 | 4000 ft | 178 kts | 211° |
| 2026-05-07 20:23 | -17.00000 | -62.54430 | 4000 ft | 178 kts | 211° |
| 2026-05-07 20:24 | -17.01056 | -62.55090 | 4000 ft | 178 kts | 211° |
| 2026-05-07 20:24 | -17.02117 | -62.55752 | 4000 ft | 178 kts | 211° |
| 2026-05-07 20:24 | -17.03187 | -62.56420 | 4000 ft | 178 kts | 211° |
| 2026-05-07 20:24 | -17.04246 | -62.57080 | 4046 ft | 178 kts | 211° |
| 2026-05-07 20:25 | -17.05350 | -62.57771 | 3953 ft | 186 kts | 211° |
| 2026-05-07 20:25 | -17.06433 | -62.58448 | 3991 ft | 179 kts | 211° |
| 2026-05-07 20:25 | -17.07491 | -62.59109 | 3998 ft | 178 kts | 211° |
| 2026-05-07 20:25 | -17.08562 | -62.59777 | 3999 ft | 178 kts | 211° |
| 2026-05-07 20:26 | -17.09613 | -62.60434 | 4000 ft | 178 kts | 211° |
| 2026-05-07 20:26 | -17.10672 | -62.61095 | 4000 ft | 178 kts | 211° |
| 2026-05-07 20:26 | -17.11743 | -62.61764 | 4000 ft | 178 kts | 211° |
| 2026-05-07 20:26 | -17.12793 | -62.62420 | 4000 ft | 178 kts | 211° |
| 2026-05-07 20:27 | -17.13862 | -62.63088 | 4000 ft | 178 kts | 211° |
| 2026-05-07 20:27 | -17.14926 | -62.63753 | 4000 ft | 178 kts | 211° |
| 2026-05-07 20:27 | -17.15981 | -62.64413 | 4000 ft | 178 kts | 211° |
| 2026-05-07 20:27 | -17.17046 | -62.65079 | 4000 ft | 178 kts | 211° |
| 2026-05-07 20:28 | -17.18106 | -62.65742 | 4000 ft | 178 kts | 211° |
| 2026-05-07 20:28 | -17.19162 | -62.66402 | 4000 ft | 178 kts | 211° |
| 2026-05-07 20:28 | -17.20227 | -62.67069 | 4000 ft | 178 kts | 211° |
| 2026-05-07 20:28 | -17.21283 | -62.67730 | 4000 ft | 178 kts | 211° |
| 2026-05-07 20:29 | -17.22350 | -62.68397 | 4000 ft | 178 kts | 211° |
| 2026-05-07 20:29 | -17.23418 | -62.69066 | 4000 ft | 178 kts | 211° |
| 2026-05-07 20:29 | -17.24474 | -62.69726 | 4000 ft | 178 kts | 211° |
| 2026-05-07 20:29 | -17.25529 | -62.70387 | 4000 ft | 178 kts | 211° |
| 2026-05-07 20:30 | -17.26593 | -62.71053 | 4000 ft | 178 kts | 211° |
| 2026-05-07 20:30 | -17.27663 | -62.71723 | 4000 ft | 178 kts | 211° |
| 2026-05-07 20:30 | -17.28721 | -62.72386 | 4000 ft | 178 kts | 211° |
| 2026-05-07 20:30 | -17.29774 | -62.73045 | 4000 ft | 178 kts | 211° |
| 2026-05-07 20:31 | -17.30848 | -62.73718 | 4000 ft | 178 kts | 211° |
| 2026-05-07 20:31 | -17.31906 | -62.74381 | 4000 ft | 178 kts | 211° |
| 2026-05-07 20:31 | -17.32958 | -62.75040 | 4000 ft | 178 kts | 211° |
| 2026-05-07 20:31 | -17.34027 | -62.75710 | 4000 ft | 178 kts | 211° |
| 2026-05-07 20:32 | -17.34733 | -62.76153 | 4000 ft | 178 kts | 211° |
| 2026-05-07 20:32 | -17.36147 | -62.77039 | 4000 ft | 178 kts | 211° |
| 2026-05-07 20:32 | -17.37202 | -62.77700 | 4000 ft | 178 kts | 211° |
| 2026-05-07 20:32 | -17.37912 | -62.78145 | 4000 ft | 178 kts | 211° |
| 2026-05-07 20:33 | -17.38982 | -62.78816 | 4000 ft | 178 kts | 211° |
| 2026-05-07 20:33 | -17.40051 | -62.79486 | 4000 ft | 178 kts | 211° |
| 2026-05-07 20:33 | -17.41104 | -62.80147 | 4000 ft | 178 kts | 211° |
| 2026-05-07 20:33 | -17.42160 | -62.80810 | 4000 ft | 178 kts | 211° |
| 2026-05-07 20:34 | -17.43226 | -62.81479 | 3995 ft | 176 kts | 211° |
| 2026-05-07 20:34 | -17.44264 | -62.82130 | 4011 ft | 175 kts | 211° |
| 2026-05-07 20:34 | -17.45313 | -62.82787 | 4004 ft | 177 kts | 211° |
| 2026-05-07 20:34 | -17.46381 | -62.83458 | 4001 ft | 178 kts | 211° |
| 2026-05-07 20:35 | -17.47435 | -62.84120 | 4000 ft | 178 kts | 211° |
| 2026-05-07 20:35 | -17.48506 | -62.84792 | 4000 ft | 178 kts | 211° |
| 2026-05-07 20:35 | -17.49566 | -62.85458 | 4000 ft | 178 kts | 211° |
| 2026-05-07 20:35 | -17.50626 | -62.86124 | 4000 ft | 178 kts | 211° |
| 2026-05-07 20:36 | -17.51684 | -62.86788 | 4000 ft | 178 kts | 211° |
| 2026-05-07 20:36 | -17.52737 | -62.87450 | 4000 ft | 178 kts | 211° |
| 2026-05-07 20:36 | -17.53809 | -62.88123 | 4000 ft | 178 kts | 211° |
| 2026-05-07 20:36 | -17.54866 | -62.88788 | 4000 ft | 178 kts | 211° |
| 2026-05-07 20:37 | -17.55923 | -62.89452 | 4000 ft | 178 kts | 211° |
| 2026-05-07 20:37 | -17.56977 | -62.90114 | 4000 ft | 178 kts | 211° |
| 2026-05-07 20:37 | -17.58049 | -62.90788 | 3995 ft | 178 kts | 211° |
| 2026-05-07 20:37 | -17.59091 | -62.91443 | 3993 ft | 176 kts | 211° |
| 2026-05-07 20:38 | -17.60156 | -62.92113 | 4004 ft | 177 kts | 211° |
| 2026-05-07 20:38 | -17.61208 | -62.92774 | 4001 ft | 177 kts | 211° |
| 2026-05-07 20:38 | -17.62262 | -62.93437 | 4000 ft | 178 kts | 211° |
| 2026-05-07 20:38 | -17.63326 | -62.94107 | 4000 ft | 178 kts | 211° |
| 2026-05-07 20:39 | -17.64395 | -62.94779 | 4000 ft | 178 kts | 211° |
| 2026-05-07 20:39 | -17.65443 | -62.95439 | 4000 ft | 178 kts | 211° |
| 2026-05-07 20:39 | -17.66504 | -62.96106 | 4000 ft | 178 kts | 211° |
| 2026-05-07 20:39 | -17.67536 | -62.96818 | 3994 ft | 178 kts | 219° |
| 2026-05-07 20:40 | -17.68299 | -62.97823 | 3999 ft | 177 kts | 240° |
| 2026-05-07 20:40 | -17.68705 | -62.99031 | 4009 ft | 177 kts | 255° |
| 2026-05-07 20:40 | -17.68979 | -63.00300 | 4003 ft | 178 kts | 258° |
| 2026-05-07 20:40 | -17.69292 | -63.01560 | 3999 ft | 178 kts | 251° |
| 2026-05-07 20:41 | -17.69768 | -63.02749 | 4002 ft | 178 kts | 245° |
| 2026-05-07 20:41 | -17.70316 | -63.03908 | 4001 ft | 178 kts | 243° |
| 2026-05-07 20:41 | -17.70889 | -63.05073 | 4000 ft | 178 kts | 243° |
| 2026-05-07 20:41 | -17.71603 | -63.06121 | 3996 ft | 178 kts | 226° |
| 2026-05-07 20:42 | -17.72574 | -63.06913 | 4008 ft | 177 kts | 216° |
| 2026-05-07 20:42 | -17.73571 | -63.07686 | 4001 ft | 178 kts | 216° |
| 2026-05-07 20:42 | -17.74561 | -63.08454 | 4000 ft | 178 kts | 216° |
| 2026-05-07 20:42 | -17.75561 | -63.09231 | 4000 ft | 178 kts | 216° |
| 2026-05-07 20:43 | -17.76547 | -63.09997 | 4000 ft | 178 kts | 216° |
| 2026-05-07 20:43 | -17.77538 | -63.10766 | 4000 ft | 178 kts | 216° |
| 2026-05-07 20:43 | -17.78483 | -63.11491 | 3794 ft | 157 kts | 216° |
| 2026-05-07 20:43 | -17.79449 | -63.12232 | 3367 ft | 181 kts | 217° |
| 2026-05-07 20:44 | -17.80442 | -63.13086 | 2990 ft | 184 kts | 221° |
| 2026-05-07 20:44 | -17.81378 | -63.14009 | 2563 ft | 187 kts | 224° |
| 2026-05-07 20:44 | -17.82121 | -63.15095 | 2086 ft | 168 kts | 244° |
| 2026-05-07 20:44 | -17.82211 | -63.16201 | 1491 ft | 140 kts | 288° |
| 2026-05-07 20:45 | -17.81624 | -63.16786 | 1375 ft | 94 kts | 323° |
| 2026-05-07 20:45 | -17.81226 | -63.17087 | 1375 ft | 49 kts | 324° |
| 2026-05-07 20:45 | -17.80936 | -63.17306 | 1375 ft | 50 kts | 324° |
| 2026-05-07 20:45 | -17.80599 | -63.17564 | 1375 ft | 48 kts | 323° |
| 2026-05-07 20:46 | -17.80442 | -63.17680 | 1375 ft | 27 kts | 330° |
| 2026-05-07 20:46 | -17.80328 | -63.17679 | 1375 ft | 19 kts | 17° |
| 2026-05-07 20:46 | -17.80222 | -63.17681 | 1375 ft | 18 kts | 344° |
| 2026-05-07 20:46 | -17.80117 | -63.17714 | 1375 ft | 10 kts | 341° |
| 2026-05-07 20:47 | -17.80082 | -63.17786 | 1375 ft | 14 kts | 281° |
| 2026-05-07 20:47 | -17.80062 | -63.17872 | 1375 ft | 11 kts | 304° |
| 2026-05-07 20:47 | -17.80011 | -63.17897 | 1375 ft | 0 kts | 321° |